Time,TemperatureF,DewpointF,PressureIn,WindDirection,WindDirectionDegrees,WindSpeedMPH,WindSpeedGustMPH,Humidity,HourlyPrecipIn,Conditions,Clouds,dailyrainin,SoftwareType,DateUTC
2013-04-26 00:03:00,47.0,29.0,30.30,North,360,0.0,0.0,50,0.00,,,0.00,,2013-04-26 04:03:00,
2013-04-26 00:12:00,47.0,29.0,30.30,North,360,0.0,0.0,50,0.00,,,0.00,,2013-04-26 04:12:00,
2013-04-26 00:23:00,47.0,29.0,30.30,North,360,0.0,0.0,50,0.00,,,0.00,,2013-04-26 04:23:00,
2013-04-26 00:53:00,47.0,28.0,30.31,North,360,0.0,0.0,48,0.00,,,0.00,,2013-04-26 04:53:00,
2013-04-26 01:02:00,47.0,30.0,30.31,North,360,0.0,0.0,51,0.00,,,0.00,,2013-04-26 05:02:00,
2013-04-26 01:13:00,47.0,30.0,30.31,North,360,0.0,0.0,51,0.00,,,0.00,,2013-04-26 05:13:00,
2013-04-26 01:22:00,47.0,29.0,30.32,North,360,0.0,0.0,49,0.00,,,0.00,,2013-04-26 05:22:00,
2013-04-26 01:32:00,46.0,28.0,30.31,North,360,0.0,0.0,50,0.00,,,0.00,,2013-04-26 05:32:00,
2013-04-26 01:42:00,46.0,28.0,30.31,North,360,0.0,0.0,50,0.00,,,0.00,,2013-04-26 05:42:00,
2013-04-26 01:52:00,46.0,28.0,30.31,North,360,0.0,0.0,50,0.00,,,0.00,,2013-04-26 05:52:00,
2013-04-26 02:02:00,46.0,29.0,30.31,North,360,0.0,0.0,51,0.00,,,0.00,,2013-04-26 06:02:00,
2013-04-26 02:11:00,46.0,29.0,30.31,North,360,0.0,0.0,51,0.00,,,0.00,,2013-04-26 06:11:00,
2013-04-26 02:22:00,46.0,30.0,30.31,North,360,0.0,0.0,54,0.00,,,0.00,,2013-04-26 06:22:00,
2013-04-26 02:32:00,46.0,30.0,30.31,North,360,0.0,0.0,54,0.00,,,0.00,,2013-04-26 06:32:00,
2013-04-26 02:42:00,46.0,30.0,30.31,North,360,0.0,0.0,54,0.00,,,0.00,,2013-04-26 06:42:00,
2013-04-26 02:52:00,44.0,29.0,30.31,North,360,0.0,0.0,55,0.00,,,0.00,,2013-04-26 06:52:00,
2013-04-26 03:02:00,44.0,28.0,30.31,North,360,0.0,0.0,54,0.00,,,0.00,,2013-04-26 07:02:00,
2013-04-26 03:11:00,44.0,28.0,30.31,North,360,0.0,0.0,54,0.00,,,0.00,,2013-04-26 07:11:00,
2013-04-26 03:22:00,44.0,28.0,30.31,North,360,0.0,0.0,54,0.00,,,0.00,,2013-04-26 07:22:00,
2013-04-26 03:32:00,44.0,29.0,30.30,North,360,0.0,0.0,56,0.00,,,0.00,,2013-04-26 07:32:00,
2013-04-26 03:42:00,44.0,29.0,30.30,North,360,0.0,0.0,56,0.00,,,0.00,,2013-04-26 07:42:00,
2013-04-26 03:52:00,44.0,29.0,30.30,North,360,0.0,0.0,56,0.00,,,0.00,,2013-04-26 07:52:00,
2013-04-26 04:03:00,44.0,29.0,30.30,North,360,0.0,0.0,56,0.00,,,0.00,,2013-04-26 08:03:00,
2013-04-26 04:11:00,44.0,29.0,30.30,North,360,0.0,0.0,56,0.00,,,0.00,,2013-04-26 08:11:00,
2013-04-26 04:52:00,42.0,29.0,30.31,North,360,0.0,0.0,59,0.00,,,0.00,,2013-04-26 08:52:00,
2013-04-26 05:02:00,42.0,30.0,30.31,North,360,0.0,0.0,61,0.00,,,0.00,,2013-04-26 09:02:00,
2013-04-26 05:12:00,42.0,30.0,30.31,North,360,0.0,0.0,61,0.00,,,0.00,,2013-04-26 09:12:00,
2013-04-26 05:22:00,42.0,30.0,30.31,North,360,0.0,0.0,61,0.00,,,0.00,,2013-04-26 09:22:00,
2013-04-26 05:33:00,41.0,29.0,30.31,North,360,0.0,0.0,62,0.00,,,0.00,,2013-04-26 09:33:00,
2013-04-26 05:43:00,41.0,29.0,30.31,North,360,0.0,0.0,62,0.00,,,0.00,,2013-04-26 09:43:00,
2013-04-26 05:53:00,41.0,29.0,30.31,North,360,0.0,0.0,62,0.00,,,0.00,,2013-04-26 09:53:00,
2013-04-26 06:03:00,41.0,29.0,30.31,North,360,0.0,0.0,62,0.00,,,0.00,,2013-04-26 10:03:00,
2013-04-26 06:12:00,41.0,29.0,30.31,North,360,0.0,0.0,62,0.00,,,0.00,,2013-04-26 10:12:00,
2013-04-26 07:02:00,39.0,29.0,30.34,North,360,0.0,0.0,68,0.00,,,0.00,,2013-04-26 11:02:00,
2013-04-26 07:12:00,39.0,29.0,30.34,North,360,0.0,0.0,68,0.00,,,0.00,,2013-04-26 11:12:00,
2013-04-26 07:22:00,39.0,29.0,30.34,North,360,0.0,0.0,67,0.00,,,0.00,,2013-04-26 11:22:00,
2013-04-26 07:32:00,40.0,29.0,30.35,North,360,0.0,0.0,65,0.00,,,0.00,,2013-04-26 11:32:00,
2013-04-26 07:42:00,40.0,29.0,30.35,North,360,0.0,0.0,65,0.00,,,0.00,,2013-04-26 11:42:00,
2013-04-26 07:52:00,40.0,30.0,30.35,North,360,0.0,0.0,66,0.00,,,0.00,,2013-04-26 11:52:00,
2013-04-26 08:02:00,41.0,31.0,30.36,North,360,0.0,0.0,67,0.00,,,0.00,,2013-04-26 12:02:00,
2013-04-26 08:11:00,41.0,31.0,30.36,North,360,0.0,0.0,67,0.00,,,0.00,,2013-04-26 12:11:00,
2013-04-26 08:21:00,40.0,31.0,30.37,SSE,150,0.0,0.0,69,0.00,,,0.00,,2013-04-26 12:21:00,
2013-04-26 08:32:00,42.0,31.0,30.37,SSE,150,0.0,0.0,65,0.00,,,0.00,,2013-04-26 12:32:00,
2013-04-26 08:42:00,42.0,31.0,30.37,SSE,150,0.0,0.0,65,0.00,,,0.00,,2013-04-26 12:42:00,
2013-04-26 08:52:00,42.0,31.0,30.37,SSE,150,0.0,0.0,65,0.00,,,0.00,,2013-04-26 12:52:00,
2013-04-26 09:01:00,43.0,32.0,30.38,South,177,0.0,0.0,64,0.00,,,0.00,,2013-04-26 13:01:00,
2013-04-26 09:11:00,43.0,32.0,30.38,South,177,0.0,0.0,64,0.00,,,0.00,,2013-04-26 13:11:00,
2013-04-26 09:22:00,44.0,33.0,30.38,SSE,161,0.0,0.0,66,0.00,,,0.00,,2013-04-26 13:22:00,
2013-04-26 09:32:00,47.0,33.0,30.37,SSE,155,0.0,0.0,59,0.00,,,0.00,,2013-04-26 13:32:00,
2013-04-26 09:42:00,47.0,33.0,30.37,SSE,155,0.0,0.0,59,0.00,,,0.00,,2013-04-26 13:42:00,
2013-04-26 09:52:00,47.0,33.0,30.37,SSE,155,0.0,0.0,59,0.00,,,0.00,,2013-04-26 13:52:00,
2013-04-26 10:01:00,50.0,34.0,30.37,SSW,194,0.0,0.0,53,0.00,,,0.00,,2013-04-26 14:01:00,
2013-04-26 10:11:00,50.0,34.0,30.37,SSW,194,0.0,0.0,53,0.00,,,0.00,,2013-04-26 14:11:00,
2013-04-26 10:21:00,50.0,34.0,30.36,SSE,161,0.0,0.0,54,0.00,,,0.00,,2013-04-26 14:21:00,
2013-04-26 10:32:00,50.0,34.0,30.36,SSE,161,0.0,0.0,54,0.00,,,0.00,,2013-04-26 14:32:00,
2013-04-26 10:42:00,50.0,34.0,30.36,SSE,161,0.0,0.0,54,0.00,,,0.00,,2013-04-26 14:42:00,
2013-04-26 10:51:00,50.0,34.0,30.36,SSE,161,0.0,0.0,54,0.00,,,0.00,,2013-04-26 14:51:00,
2013-04-26 11:02:00,55.0,35.0,30.36,SSE,156,0.0,0.0,46,0.00,,,0.00,,2013-04-26 15:02:00,
2013-04-26 11:12:00,55.0,35.0,30.36,SSE,156,0.0,0.0,46,0.00,,,0.00,,2013-04-26 15:12:00,
2013-04-26 11:22:00,57.0,34.0,30.36,SE,141,0.0,0.0,41,0.00,,,0.00,,2013-04-26 15:22:00,
2013-04-26 11:33:00,57.0,34.0,30.36,SE,141,0.0,0.0,41,0.00,,,0.00,,2013-04-26 15:33:00,
2013-04-26 11:43:00,57.0,34.0,30.36,SE,141,0.0,0.0,41,0.00,,,0.00,,2013-04-26 15:43:00,
2013-04-26 11:53:00,57.0,34.0,30.36,SE,141,0.0,0.0,41,0.00,,,0.00,,2013-04-26 15:53:00,
2013-04-26 12:53:00,62.0,35.0,30.35,SE,145,0.0,0.0,37,0.00,,,0.00,,2013-04-26 16:53:00,
2013-04-26 13:02:00,62.0,35.0,30.35,SE,145,0.0,0.0,37,0.00,,,0.00,,2013-04-26 17:02:00,
2013-04-26 13:12:00,62.0,35.0,30.35,SE,145,0.0,0.0,37,0.00,,,0.00,,2013-04-26 17:12:00,
2013-04-26 13:22:00,62.0,35.0,30.35,SE,145,0.0,0.0,37,0.00,,,0.00,,2013-04-26 17:22:00,
2013-04-26 13:32:00,65.0,32.0,30.35,SE,134,4.0,7.0,29,0.00,,,0.00,,2013-04-26 17:32:00,
2013-04-26 13:42:00,65.0,32.0,30.35,SE,134,4.0,7.0,29,0.00,,,0.00,,2013-04-26 17:42:00,
2013-04-26 13:52:00,67.0,32.0,30.34,SSE,159,9.0,9.0,27,0.00,,,0.00,,2013-04-26 17:52:00,
2013-04-26 14:02:00,66.0,32.0,30.34,SW,220,0.0,0.0,28,0.00,,,0.00,,2013-04-26 18:02:00,
2013-04-26 14:12:00,66.0,32.0,30.34,SW,220,0.0,0.0,28,0.00,,,0.00,,2013-04-26 18:12:00,
2013-04-26 14:22:00,66.0,32.0,30.34,SW,220,0.0,0.0,28,0.00,,,0.00,,2013-04-26 18:22:00,
2013-04-26 14:33:00,66.0,34.0,30.34,WSW,249,0.0,3.0,30,0.00,,,0.00,,2013-04-26 18:33:00,
2013-04-26 14:42:00,66.0,34.0,30.34,WSW,249,0.0,3.0,30,0.00,,,0.00,,2013-04-26 18:42:00,
2013-04-26 14:52:00,66.0,34.0,30.33,SE,132,3.0,3.0,31,0.00,,,0.00,,2013-04-26 18:52:00,
2013-04-26 15:02:00,66.0,34.0,30.32,ENE,68,0.0,0.0,30,0.00,,,0.00,,2013-04-26 19:02:00,
2013-04-26 15:12:00,66.0,34.0,30.32,ENE,68,0.0,0.0,30,0.00,,,0.00,,2013-04-26 19:12:00,
2013-04-26 15:22:00,67.0,34.0,30.30,SE,128,3.0,4.0,29,0.00,,,0.00,,2013-04-26 19:22:00,
2013-04-26 15:32:00,66.0,34.0,30.31,South,181,6.0,9.0,30,0.00,,,0.00,,2013-04-26 19:32:00,
2013-04-26 15:42:00,66.0,34.0,30.31,South,181,6.0,9.0,30,0.00,,,0.00,,2013-04-26 19:42:00,
2013-04-26 15:52:00,66.0,34.0,30.31,South,181,6.0,9.0,30,0.00,,,0.00,,2013-04-26 19:52:00,
2013-04-26 16:02:00,66.0,34.0,30.30,SW,234,0.0,0.0,31,0.00,,,0.00,,2013-04-26 20:02:00,
2013-04-26 16:11:00,66.0,34.0,30.30,SW,234,0.0,0.0,31,0.00,,,0.00,,2013-04-26 20:11:00,
2013-04-26 16:22:00,66.0,34.0,30.30,SW,234,0.0,0.0,31,0.00,,,0.00,,2013-04-26 20:22:00,
2013-04-26 16:32:00,66.0,34.0,30.30,SW,234,0.0,0.0,31,0.00,,,0.00,,2013-04-26 20:32:00,
2013-04-26 16:42:00,66.0,34.0,30.30,SW,234,0.0,0.0,31,0.00,,,0.00,,2013-04-26 20:42:00,
2013-04-26 18:23:00,66.0,36.0,30.27,SSW,200,2.0,5.0,33,0.00,,,0.00,,2013-04-26 22:23:00,
2013-04-26 18:33:00,65.0,36.0,30.27,SSE,164,0.0,3.0,34,0.00,,,0.00,,2013-04-26 22:33:00,
2013-04-26 18:42:00,65.0,36.0,30.27,SSE,164,0.0,3.0,34,0.00,,,0.00,,2013-04-26 22:42:00,
2013-04-26 18:52:00,65.0,37.0,30.28,SE,143,3.0,3.0,35,0.00,,,0.00,,2013-04-26 22:52:00,
2013-04-26 19:02:00,64.0,37.0,30.30,South,173,0.0,3.0,36,0.00,,,0.00,,2013-04-26 23:02:00,
2013-04-26 19:12:00,64.0,37.0,30.30,South,173,0.0,3.0,36,0.00,,,0.00,,2013-04-26 23:12:00,
2013-04-26 19:21:00,64.0,37.0,30.30,SE,135,1.0,3.0,36,0.00,,,0.00,,2013-04-26 23:21:00,
2013-04-26 19:32:00,63.0,37.0,30.32,WNW,291,0.0,0.0,38,0.00,,,0.00,,2013-04-26 23:32:00,
2013-04-26 19:42:00,63.0,37.0,30.32,WNW,291,0.0,0.0,38,0.00,,,0.00,,2013-04-26 23:42:00,
2013-04-26 19:52:00,63.0,37.0,30.32,WNW,291,0.0,0.0,38,0.00,,,0.00,,2013-04-26 23:52:00,
2013-04-26 20:01:00,63.0,37.0,30.32,WNW,291,0.0,0.0,38,0.00,,,0.00,,2013-04-27 00:01:00,
2013-04-26 20:11:00,63.0,37.0,30.32,WNW,291,0.0,0.0,38,0.00,,,0.00,,2013-04-27 00:11:00,
2013-04-26 20:21:00,63.0,37.0,30.32,WNW,291,0.0,0.0,38,0.00,,,0.00,,2013-04-27 00:21:00,
2013-04-26 21:01:00,60.0,37.0,30.32,WNW,291,0.0,0.0,42,0.00,,,0.00,,2013-04-27 01:01:00,
2013-04-26 21:12:00,60.0,37.0,30.32,WNW,291,0.0,0.0,42,0.00,,,0.00,,2013-04-27 01:12:00,
2013-04-26 21:21:00,60.0,38.0,30.32,WNW,291,0.0,0.0,44,0.00,,,0.00,,2013-04-27 01:21:00,
2013-04-26 21:32:00,59.0,38.0,30.31,WNW,291,0.0,0.0,45,0.00,,,0.00,,2013-04-27 01:32:00,
2013-04-26 21:42:00,59.0,38.0,30.31,WNW,291,0.0,0.0,45,0.00,,,0.00,,2013-04-27 01:42:00,
2013-04-26 21:52:00,59.0,37.0,30.30,WNW,291,0.0,0.0,44,0.00,,,0.00,,2013-04-27 01:52:00,
2013-04-26 22:02:00,59.0,37.0,30.30,WNW,291,0.0,0.0,44,0.00,,,0.00,,2013-04-27 02:02:00,
2013-04-26 22:11:00,59.0,37.0,30.30,WNW,291,0.0,0.0,44,0.00,,,0.00,,2013-04-27 02:11:00,
2013-04-26 22:22:00,59.0,38.0,30.29,WNW,291,0.0,0.0,45,0.00,,,0.00,,2013-04-27 02:22:00,
2013-04-26 22:32:00,59.0,38.0,30.29,WNW,291,0.0,0.0,46,0.00,,,0.00,,2013-04-27 02:32:00,
2013-04-26 22:42:00,59.0,38.0,30.29,WNW,291,0.0,0.0,46,0.00,,,0.00,,2013-04-27 02:42:00,
2013-04-26 22:52:00,59.0,38.0,30.29,WNW,291,0.0,0.0,46,0.00,,,0.00,,2013-04-27 02:52:00,
2013-04-26 23:02:00,59.0,38.0,30.29,WNW,291,0.0,0.0,46,0.00,,,0.00,,2013-04-27 03:02:00,
2013-04-26 23:11:00,59.0,38.0,30.29,WNW,291,0.0,0.0,46,0.00,,,0.00,,2013-04-27 03:11:00,
2013-04-26 23:22:00,59.0,38.0,30.29,WNW,291,0.0,0.0,45,0.00,,,0.00,,2013-04-27 03:22:00,
2013-04-26 23:33:00,58.0,38.0,30.30,WNW,291,0.0,0.0,48,0.00,,,0.00,,2013-04-27 03:33:00,
2013-04-26 23:43:00,58.0,38.0,30.30,WNW,291,0.0,0.0,48,0.00,,,0.00,,2013-04-27 03:43:00,
2013-04-26 23:53:00,58.0,37.0,30.31,WNW,291,0.0,0.0,46,0.00,,,0.00,,2013-04-27 03:53:00,